createdAt,value
2023-09-29T00:01:59.096Z,1.00
2023-09-29T00:04:30.175Z,0.77
2023-09-29T00:07:00.446Z,0.80
2023-09-29T00:09:31.650Z,0.70
2023-09-29T00:12:02.876Z,0.73
2023-09-29T00:14:33.236Z,1.27
2023-09-29T00:17:03.830Z,0.73
2023-09-29T00:19:35.506Z,2.58
2023-09-29T00:22:06.688Z,1.00
2023-09-29T00:24:36.943Z,0.93
2023-09-29T00:27:07.207Z,1.30
2023-09-29T00:29:38.959Z,1.20
2023-09-29T00:32:09.187Z,1.13
2023-09-29T00:34:38.903Z,1.05
2023-09-29T00:37:10.105Z,1.42
2023-09-29T00:39:41.078Z,1.77
2023-09-29T00:42:11.737Z,1.23
2023-09-29T00:44:41.892Z,1.73
2023-09-29T00:47:14.511Z,1.38
2023-09-29T00:49:45.260Z,1.25
2023-09-29T00:52:19.154Z,1.30
2023-09-29T00:54:49.000Z,1.50
2023-09-29T00:57:19.264Z,1.23
2023-09-29T00:59:51.180Z,1.45
2023-09-29T01:02:23.338Z,1.20
2023-09-29T01:04:53.454Z,1.60
2023-09-29T01:07:23.223Z,1.80
2023-09-29T01:09:53.433Z,1.52
2023-09-29T01:12:30.803Z,1.55
2023-09-29T01:15:02.810Z,1.80
2023-09-29T01:17:33.491Z,2.00
2023-09-29T01:20:08.018Z,1.70
2023-09-29T01:22:50.846Z,1.80
2023-09-29T01:25:22.067Z,1.70
2023-09-29T01:27:52.663Z,1.90
2023-09-29T01:30:22.971Z,1.80
2023-09-29T01:32:55.889Z,1.90
2023-09-29T01:35:26.979Z,1.67
2023-09-29T01:38:01.589Z,1.92
2023-09-29T01:40:32.700Z,1.80
2023-09-29T01:43:03.136Z,2.03
2023-09-29T01:45:34.837Z,1.90
2023-09-29T01:48:05.402Z,1.92
2023-09-29T01:50:35.459Z,1.70
2023-09-29T01:53:06.127Z,2.25
2023-09-29T01:55:37.249Z,1.65
2023-09-29T01:58:07.855Z,2.00
2023-09-29T02:00:38.130Z,2.28
2023-09-29T02:03:10.111Z,2.05
2023-09-29T02:05:42.368Z,3.08
2023-09-29T02:08:13.039Z,1.95
2023-09-29T02:10:44.354Z,2.20
2023-09-29T02:13:14.679Z,1.70
2023-09-29T02:15:44.928Z,2.50
2023-09-29T02:18:16.339Z,1.85
2023-09-29T02:20:49.103Z,1.48
2023-09-29T02:23:19.328Z,1.70
2023-09-29T02:25:51.135Z,1.50
2023-09-29T02:28:22.469Z,1.67
2023-09-29T02:30:52.552Z,2.28
2023-09-29T02:33:25.231Z,1.35
2023-09-29T02:35:59.035Z,1.60
2023-09-29T02:38:30.708Z,1.60
2023-09-29T02:41:02.143Z,1.90
2023-09-29T02:43:32.850Z,1.45
2023-09-29T02:46:03.199Z,1.55
2023-09-29T02:48:34.783Z,1.63
2023-09-29T02:51:05.410Z,1.58
2023-09-29T02:53:36.487Z,1.50
2023-09-29T02:56:07.930Z,1.45
2023-09-29T02:58:38.520Z,1.30
2023-09-29T03:01:14.200Z,1.30
2023-09-29T03:03:48.662Z,1.63
2023-09-29T03:06:22.944Z,1.48
2023-09-29T03:08:57.389Z,1.40
2023-09-29T03:11:28.244Z,1.30
2023-09-29T03:13:59.379Z,1.30
2023-09-29T03:16:30.217Z,1.23
2023-09-29T03:19:03.142Z,1.50
2023-09-29T03:21:35.076Z,1.10
2023-09-29T03:24:06.075Z,1.27
2023-09-29T03:26:36.965Z,1.23
2023-09-29T03:29:08.274Z,1.20
2023-09-29T03:31:39.296Z,0.93
2023-09-29T03:34:09.497Z,0.98
2023-09-29T03:36:39.957Z,1.15
2023-09-29T03:39:12.951Z,1.00
2023-09-29T03:41:43.641Z,0.93
2023-09-29T03:44:16.202Z,1.00
2023-09-29T03:46:46.891Z,1.00
2023-09-29T03:49:17.513Z,0.88
2023-09-29T03:51:47.283Z,0.90
2023-09-29T03:54:18.959Z,0.70
2023-09-29T03:56:49.750Z,0.90
2023-09-29T03:59:20.632Z,0.93
2023-09-29T04:01:51.038Z,0.95
2023-09-29T04:04:21.293Z,1.00
2023-09-29T04:06:51.982Z,0.80
2023-09-29T04:09:22.979Z,0.85
2023-09-29T04:11:53.549Z,0.90
2023-09-29T04:14:33.779Z,0.63
2023-09-29T04:17:07.172Z,0.85
2023-09-29T04:19:37.677Z,0.93
2023-09-29T04:22:07.551Z,0.68
2023-09-29T04:24:38.932Z,0.82
2023-09-29T04:27:09.499Z,0.65
2023-09-29T04:29:40.121Z,0.63
2023-09-29T04:32:10.290Z,0.50
2023-09-29T04:34:40.873Z,0.80
2023-09-29T04:37:11.501Z,0.60
2023-09-29T04:39:41.632Z,0.77
2023-09-29T04:42:12.421Z,0.47
2023-09-29T04:44:43.204Z,1.08
2023-09-29T04:47:13.515Z,0.70
2023-09-29T04:49:45.111Z,1.00
2023-09-29T04:52:15.269Z,0.80
2023-09-29T04:54:46.251Z,0.85
2023-09-29T04:57:17.325Z,1.08
2023-09-29T04:59:48.542Z,1.13
2023-09-29T05:02:18.905Z,0.85
2023-09-29T05:04:49.878Z,0.98
2023-09-29T05:07:21.161Z,0.80
2023-09-29T05:09:51.940Z,0.90
2023-09-29T05:12:22.618Z,0.90
2023-09-29T05:14:52.532Z,0.93
2023-09-29T05:17:23.195Z,0.90
2023-09-29T05:19:55.146Z,1.10
2023-09-29T05:22:25.235Z,0.90
2023-09-29T05:24:58.450Z,0.85
2023-09-29T05:27:34.041Z,1.05
2023-09-29T05:30:07.084Z,0.90
2023-09-29T05:32:37.648Z,0.90
2023-09-29T05:35:09.204Z,1.10
2023-09-29T05:37:40.132Z,1.00
2023-09-29T05:40:11.136Z,1.00
2023-09-29T05:42:51.672Z,0.80
2023-09-29T05:45:23.234Z,1.10
2023-09-29T05:47:54.288Z,1.00
2023-09-29T05:50:26.246Z,0.98
2023-09-29T05:53:09.896Z,1.55
2023-09-29T05:55:42.344Z,0.90
2023-09-29T05:58:13.264Z,1.30
2023-09-29T06:00:43.854Z,1.77
2023-09-29T06:03:13.700Z,1.23
2023-09-29T06:05:44.843Z,1.20
2023-09-29T06:08:15.714Z,1.50
2023-09-29T06:10:47.598Z,1.30
2023-09-29T06:13:17.965Z,1.25
2023-09-29T06:15:47.789Z,1.30
2023-09-29T06:18:18.594Z,1.25
2023-09-29T06:20:48.960Z,1.73
2023-09-29T06:23:19.712Z,1.20
2023-09-29T06:25:49.601Z,1.90
2023-09-29T06:28:20.168Z,1.45
2023-09-29T06:30:51.072Z,1.58
2023-09-29T06:33:21.799Z,1.15
2023-09-29T06:35:52.070Z,1.30
2023-09-29T06:38:22.516Z,1.35
2023-09-29T06:40:53.560Z,1.48
2023-09-29T06:43:24.789Z,1.35
2023-09-29T06:46:01.173Z,1.60
2023-09-29T06:48:32.528Z,1.30
2023-09-29T06:51:02.548Z,1.10
2023-09-29T06:53:33.499Z,1.30
2023-09-29T06:56:04.796Z,1.42
2023-09-29T06:58:34.534Z,1.40
2023-09-29T07:01:07.565Z,1.40
2023-09-29T07:03:39.457Z,1.30
2023-09-29T07:06:10.024Z,1.40
2023-09-29T07:08:40.444Z,1.60
2023-09-29T07:11:10.796Z,1.67
2023-09-29T07:13:41.842Z,1.58
2023-09-29T07:16:12.097Z,1.45
2023-09-29T07:18:43.716Z,1.73
2023-09-29T07:21:13.800Z,1.52
2023-09-29T07:23:43.637Z,1.38
2023-09-29T07:26:14.369Z,1.77
2023-09-29T07:28:45.086Z,1.60
2023-09-29T07:31:17.326Z,1.70
2023-09-29T07:33:48.018Z,1.65
2023-09-29T07:36:17.928Z,1.58
2023-09-29T07:38:48.273Z,1.90
2023-09-29T07:41:19.459Z,1.50
2023-09-29T07:43:50.630Z,1.88
2023-09-29T07:46:20.870Z,1.85
2023-09-29T07:48:51.601Z,1.65
2023-09-29T07:51:21.934Z,1.60
2023-09-29T07:53:53.880Z,2.00
2023-09-29T07:56:23.836Z,2.10
2023-09-29T07:58:54.705Z,1.73
2023-09-29T08:01:25.859Z,1.33
2023-09-29T08:03:56.363Z,1.83
2023-09-29T08:06:27.666Z,1.85
2023-09-29T08:08:58.336Z,1.73
2023-09-29T08:11:28.895Z,1.58
2023-09-29T08:13:59.485Z,1.75
2023-09-29T08:16:29.293Z,1.75
2023-09-29T08:18:59.928Z,1.85
2023-09-29T08:21:31.244Z,2.03
2023-09-29T08:24:10.822Z,2.20
2023-09-29T08:26:41.616Z,1.65
2023-09-29T08:29:18.084Z,2.13
2023-09-29T08:31:48.978Z,2.20
2023-09-29T08:34:20.603Z,2.08
2023-09-29T08:36:51.116Z,2.05
2023-09-29T08:39:22.154Z,1.98
2023-09-29T08:42:12.344Z,1.90
2023-09-29T08:44:46.104Z,2.47
2023-09-29T08:47:21.454Z,1.98
2023-09-29T08:52:22.413Z,1.90
2023-09-29T08:54:53.098Z,1.83
2023-09-29T08:57:24.123Z,2.10
2023-09-29T08:59:56.586Z,2.13
2023-09-29T09:02:27.137Z,2.28
2023-09-29T09:04:59.219Z,2.22
2023-09-29T09:07:30.185Z,2.20
2023-09-29T09:10:00.821Z,2.40
2023-09-29T09:12:38.913Z,2.15
2023-09-29T09:15:12.415Z,2.15
2023-09-29T09:17:43.577Z,2.15
2023-09-29T09:20:13.973Z,2.30
2023-09-29T09:22:47.122Z,2.42
2023-09-29T09:25:19.431Z,2.13
2023-09-29T09:28:01.717Z,2.15
2023-09-29T09:30:38.061Z,2.67
2023-09-29T09:33:08.560Z,2.53
2023-09-29T09:35:41.042Z,3.63
2023-09-29T09:38:12.155Z,2.42
2023-09-29T09:40:45.161Z,2.70
2023-09-29T09:43:16.461Z,2.45
2023-09-29T09:45:47.126Z,3.42
2023-09-29T09:48:22.758Z,4.20
2023-09-29T09:50:57.725Z,3.25
2023-09-29T09:53:33.367Z,2.92
2023-09-29T09:56:22.786Z,3.33
2023-09-29T09:58:54.512Z,3.28
2023-09-29T10:01:26.294Z,3.72
2023-09-29T10:03:59.204Z,3.25
2023-09-29T10:06:32.293Z,2.97
2023-09-29T10:09:05.159Z,3.22
2023-09-29T10:11:36.430Z,2.92
2023-09-29T10:14:10.324Z,3.03
2023-09-29T10:16:43.387Z,3.20
2023-09-29T10:19:14.843Z,3.55
2023-09-29T10:21:52.235Z,3.22
2023-09-29T10:24:29.995Z,3.00
2023-09-29T10:27:01.965Z,2.92
2023-09-29T10:29:36.452Z,3.22
2023-09-29T10:32:18.293Z,3.35
2023-09-29T10:34:48.718Z,3.20
2023-09-29T10:37:19.035Z,8.65
2023-09-29T10:39:50.753Z,3.30
2023-09-29T10:42:26.000Z,3.38
2023-09-29T10:44:58.167Z,3.58
2023-09-29T10:47:37.137Z,2.97
2023-09-29T10:50:09.618Z,2.70
2023-09-29T10:52:42.716Z,2.90
2023-09-29T10:55:16.273Z,2.67
2023-09-29T10:57:49.549Z,2.75
2023-09-29T11:00:21.257Z,3.60
2023-09-29T11:02:52.244Z,2.88
2023-09-29T11:05:23.215Z,3.13
2023-09-29T11:07:54.497Z,3.10
2023-09-29T11:10:25.141Z,2.70
2023-09-29T11:12:55.503Z,2.88
2023-09-29T11:15:29.093Z,2.67
2023-09-29T11:17:59.235Z,2.45
2023-09-29T11:20:29.915Z,2.25
2023-09-29T11:23:14.045Z,2.15
2023-09-29T11:25:52.724Z,3.00
2023-09-29T11:28:23.483Z,2.58
2023-09-29T11:30:53.544Z,1.83
2023-09-29T11:33:25.433Z,2.08
2023-09-29T11:36:06.408Z,1.75
2023-09-29T11:38:37.281Z,2.10
2023-09-29T11:41:10.122Z,2.42
2023-09-29T11:43:43.320Z,1.60
2023-09-29T11:46:16.512Z,1.77
2023-09-29T11:48:47.974Z,2.25
2023-09-29T11:51:18.427Z,1.60
2023-09-29T11:53:50.755Z,2.00
2023-09-29T11:56:23.227Z,1.80
2023-09-29T11:58:53.596Z,1.30
2023-09-29T12:01:23.882Z,2.05
2023-09-29T12:03:55.711Z,1.70
2023-09-29T12:06:27.411Z,1.10
2023-09-29T12:08:57.834Z,2.08
2023-09-29T12:11:27.654Z,1.05
2023-09-29T12:13:58.469Z,1.10
2023-09-29T12:16:29.311Z,1.40
2023-09-29T12:19:00.204Z,1.10
2023-09-29T12:21:30.039Z,0.80
2023-09-29T12:24:00.321Z,1.10
2023-09-29T12:26:31.832Z,1.00
2023-09-29T12:29:03.078Z,0.80
2023-09-29T12:31:34.436Z,3.50
2023-09-29T12:34:06.433Z,1.17
2023-09-29T12:36:36.948Z,0.88
2023-09-29T12:39:07.818Z,0.60
2023-09-29T12:41:40.745Z,0.70
2023-09-29T12:44:12.040Z,0.63
2023-09-29T12:46:42.282Z,0.50
2023-09-29T12:49:13.074Z,0.50
2023-09-29T12:51:57.887Z,0.70
2023-09-29T12:54:31.291Z,0.70
2023-09-29T12:57:03.275Z,0.82
2023-09-29T12:59:41.087Z,0.57
2023-09-29T13:02:11.935Z,0.70
2023-09-29T13:04:44.069Z,0.70
2023-09-29T13:07:14.760Z,0.50
2023-09-29T13:09:45.032Z,0.52
2023-09-29T13:12:30.094Z,0.70
2023-09-29T13:15:02.028Z,0.60
2023-09-29T13:17:32.512Z,0.77
2023-09-29T13:20:03.256Z,1.25
2023-09-29T13:22:34.446Z,0.60
2023-09-29T13:25:06.545Z,0.73
2023-09-29T13:27:36.775Z,2.25
2023-09-29T13:30:07.916Z,0.50
2023-09-29T13:32:38.688Z,0.77
2023-09-29T13:35:10.537Z,0.60
2023-09-29T13:37:43.893Z,0.55
2023-09-29T13:40:15.243Z,0.93
2023-09-29T13:42:47.886Z,0.85
2023-09-29T13:45:19.635Z,0.63
2023-09-29T13:47:50.106Z,0.60
2023-09-29T13:50:20.515Z,0.57
2023-09-29T13:52:51.404Z,0.73
2023-09-29T13:55:22.086Z,0.80
2023-09-29T13:57:52.176Z,0.80
2023-09-29T14:00:24.226Z,0.68
2023-09-29T14:02:55.458Z,1.48
2023-09-29T14:05:27.360Z,0.93
2023-09-29T14:07:58.502Z,1.10
2023-09-29T14:10:28.496Z,1.05
2023-09-29T14:13:00.781Z,1.25
2023-09-29T14:15:36.251Z,1.17
2023-09-29T14:20:38.219Z,0.75
2023-09-29T14:23:12.003Z,1.10
2023-09-29T14:25:42.566Z,1.20
2023-09-29T14:28:12.293Z,1.20
2023-09-29T14:30:43.734Z,0.88
2023-09-29T14:33:14.370Z,1.00
2023-09-29T14:35:49.208Z,0.95
2023-09-29T14:38:20.158Z,1.30
2023-09-29T14:40:50.139Z,1.08
2023-09-29T14:43:21.031Z,1.67
2023-09-29T14:45:52.572Z,1.05
2023-09-29T14:48:23.554Z,1.10
2023-09-29T14:50:53.650Z,1.73
2023-09-29T14:53:24.448Z,1.55
2023-09-29T14:55:55.628Z,2.28
2023-09-29T14:58:26.495Z,0.82
2023-09-29T15:00:56.469Z,1.00
2023-09-29T15:03:28.387Z,1.20
2023-09-29T15:06:07.590Z,1.25
2023-09-29T15:08:41.490Z,1.38
2023-09-29T15:11:12.834Z,1.48
2023-09-29T15:13:43.799Z,1.30
2023-09-29T15:16:19.076Z,1.52
2023-09-29T15:18:54.429Z,1.10
2023-09-29T15:21:24.648Z,2.38
2023-09-29T15:23:58.134Z,1.25
2023-09-29T15:26:30.574Z,1.23
2023-09-29T15:29:00.843Z,1.40
2023-09-29T15:31:30.942Z,1.25
2023-09-29T15:34:01.247Z,1.27
2023-09-29T15:36:34.650Z,1.45
2023-09-29T15:39:14.563Z,1.30
2023-09-29T15:41:45.423Z,1.35
2023-09-29T15:44:17.462Z,1.52
2023-09-29T15:46:48.348Z,1.40
2023-09-29T15:49:20.230Z,1.20
2023-09-29T15:51:50.347Z,1.52
2023-09-29T15:54:20.154Z,1.40
2023-09-29T15:56:50.729Z,1.17
2023-09-29T15:59:20.956Z,1.08
2023-09-29T16:01:51.959Z,1.60
2023-09-29T16:04:22.195Z,1.10
2023-09-29T16:06:52.046Z,1.27
2023-09-29T16:09:22.365Z,1.02
2023-09-29T16:11:52.908Z,1.23
2023-09-29T16:14:23.937Z,1.52
2023-09-29T16:16:54.508Z,1.45
2023-09-29T16:19:24.429Z,1.58
2023-09-29T16:21:55.358Z,1.60
2023-09-29T16:24:25.793Z,1.20
2023-09-29T16:26:56.051Z,1.40
2023-09-29T16:29:26.035Z,2.38
2023-09-29T16:31:57.145Z,1.38
2023-09-29T16:34:28.737Z,1.77
2023-09-29T16:36:58.810Z,1.67
2023-09-29T16:39:28.709Z,1.75
2023-09-29T16:42:00.413Z,1.70
2023-09-29T16:44:30.762Z,1.83
2023-09-29T16:47:02.984Z,1.52
2023-09-29T16:49:33.460Z,1.88
2023-09-29T16:52:03.943Z,1.40
2023-09-29T16:54:34.688Z,1.83
2023-09-29T16:57:04.950Z,1.80
2023-09-29T16:59:35.427Z,1.33
2023-09-29T17:02:05.773Z,1.58
2023-09-29T17:04:37.878Z,1.77
2023-09-29T17:07:09.605Z,1.58
2023-09-29T17:09:40.093Z,1.38
2023-09-29T17:12:12.405Z,1.80
2023-09-29T17:14:43.649Z,1.85
2023-09-29T17:17:14.683Z,1.60
2023-09-29T17:19:47.438Z,1.63
2023-09-29T17:22:19.881Z,1.65
2023-09-29T17:24:50.454Z,1.70
2023-09-29T17:27:21.049Z,1.73
2023-09-29T17:29:51.776Z,1.60
2023-09-29T17:32:21.896Z,1.30
2023-09-29T17:34:52.588Z,1.73
2023-09-29T17:37:23.585Z,1.70
2023-09-29T17:39:54.688Z,1.30
2023-09-29T17:42:24.896Z,1.63
2023-09-29T17:44:56.231Z,1.60
2023-09-29T17:47:27.429Z,1.30
2023-09-29T17:49:57.612Z,1.50
2023-09-29T17:52:28.083Z,1.40
2023-09-29T17:55:00.615Z,1.60
2023-09-29T17:57:31.007Z,1.60
2023-09-29T18:00:02.129Z,1.52
2023-09-29T18:02:36.257Z,2.00
2023-09-29T18:05:08.520Z,4.90
2023-09-29T18:07:40.646Z,1.42
2023-09-29T18:10:11.871Z,1.83
2023-09-29T18:12:42.101Z,1.27
2023-09-29T18:15:13.059Z,1.35
2023-09-29T18:17:45.321Z,1.52
2023-09-29T18:20:17.292Z,1.40
2023-09-29T18:22:47.880Z,1.20
2023-09-29T18:25:18.733Z,1.20
2023-09-29T18:27:48.749Z,1.30
2023-09-29T18:30:19.431Z,1.13
2023-09-29T18:32:49.394Z,1.17
2023-09-29T18:35:19.543Z,1.23
2023-09-29T18:37:49.792Z,1.20
2023-09-29T18:40:22.496Z,1.00
2023-09-29T18:42:54.010Z,1.20
2023-09-29T18:45:24.761Z,1.58
2023-09-29T18:47:54.690Z,1.50
2023-09-29T18:50:26.172Z,1.10
2023-09-29T18:52:57.426Z,1.17
2023-09-29T18:55:28.741Z,1.27
2023-09-29T18:57:58.922Z,1.20
2023-09-29T19:00:34.075Z,1.20
2023-09-29T19:03:04.820Z,1.20
2023-09-29T19:05:39.863Z,1.33
2023-09-29T19:08:10.570Z,1.65
2023-09-29T19:10:40.363Z,1.20
2023-09-29T19:13:11.310Z,1.15
2023-09-29T19:15:47.334Z,1.25
2023-09-29T19:18:17.426Z,1.08
2023-09-29T19:20:47.671Z,1.63
2023-09-29T19:23:18.589Z,1.27
2023-09-29T19:25:48.918Z,1.33
2023-09-29T19:28:19.700Z,1.45
2023-09-29T19:30:49.471Z,1.40
2023-09-29T19:33:19.574Z,2.00
2023-09-29T19:35:50.112Z,1.52
2023-09-29T19:38:20.956Z,1.80
2023-09-29T19:40:51.156Z,1.20
2023-09-29T19:43:25.636Z,1.20
2023-09-29T19:48:26.856Z,1.48
2023-09-29T19:51:14.683Z,1.50
2023-09-29T19:53:44.920Z,1.23
2023-09-29T19:56:21.864Z,1.40
2023-09-29T19:58:53.374Z,1.10
2023-09-29T20:01:25.897Z,1.60
2023-09-29T20:03:56.633Z,1.52
2023-09-29T20:06:27.550Z,1.50
2023-09-29T20:08:59.361Z,1.60
2023-09-29T20:11:30.483Z,1.50
2023-09-29T20:14:00.611Z,1.50
2023-09-29T20:16:30.977Z,1.70
2023-09-29T20:19:02.677Z,1.42
2023-09-29T20:21:33.037Z,1.40
2023-09-29T20:24:04.063Z,1.58
2023-09-29T20:26:38.013Z,1.55
2023-09-29T20:29:08.743Z,1.70
2023-09-29T20:31:38.911Z,1.38
2023-09-29T20:34:09.837Z,2.05
2023-09-29T20:36:40.428Z,1.70
2023-09-29T20:39:12.055Z,1.77
2023-09-29T20:41:42.764Z,1.17
2023-09-29T20:44:14.353Z,1.63
2023-09-29T20:46:44.560Z,1.60
2023-09-29T20:49:15.005Z,1.42
2023-09-29T20:51:45.951Z,1.80
2023-09-29T20:54:16.164Z,1.77
2023-09-29T20:56:46.385Z,1.85
2023-09-29T20:59:16.976Z,2.40
2023-09-29T21:01:48.158Z,1.80
2023-09-29T21:04:19.171Z,1.65
2023-09-29T21:06:49.680Z,1.75
2023-09-29T21:09:20.087Z,2.03
2023-09-29T21:11:51.189Z,1.75
2023-09-29T21:14:21.443Z,1.40
2023-09-29T21:16:51.541Z,1.50
2023-09-29T21:19:22.635Z,1.42
2023-09-29T21:21:52.839Z,1.65
2023-09-29T21:24:23.338Z,1.98
2023-09-29T21:26:53.146Z,1.40
2023-09-29T21:29:23.606Z,1.77
2023-09-29T21:31:56.313Z,1.33
2023-09-29T21:34:27.643Z,1.83
2023-09-29T21:36:58.378Z,1.40
2023-09-29T21:39:29.096Z,1.75
2023-09-29T21:41:59.671Z,1.40
2023-09-29T21:44:29.793Z,2.35
2023-09-29T21:46:59.914Z,2.20
2023-09-29T21:49:29.732Z,2.10
2023-09-29T21:52:00.400Z,1.88
2023-09-29T21:54:31.274Z,1.60
2023-09-29T21:57:02.128Z,2.13
2023-09-29T21:59:32.190Z,1.45
2023-09-29T22:02:01.940Z,1.83
2023-09-29T22:04:32.105Z,1.55
2023-09-29T22:07:02.298Z,1.90
2023-09-29T22:09:32.787Z,2.08
2023-09-29T22:12:03.396Z,2.30
2023-09-29T22:14:35.645Z,1.45
2023-09-29T22:17:06.143Z,1.90
2023-09-29T22:19:37.162Z,1.75
2023-09-29T22:22:07.561Z,2.00
2023-09-29T22:24:37.362Z,1.65
2023-09-29T22:27:07.968Z,1.55
2023-09-29T22:29:39.925Z,1.70
2023-09-29T22:32:10.426Z,2.00
2023-09-29T22:34:40.669Z,1.60
2023-09-29T22:37:11.564Z,1.60
2023-09-29T22:39:47.333Z,1.85
2023-09-29T22:42:17.956Z,2.03
2023-09-29T22:44:47.767Z,2.25
2023-09-29T22:47:18.746Z,1.95
2023-09-29T22:49:49.203Z,2.20
2023-09-29T22:52:19.352Z,2.22
2023-09-29T22:54:49.187Z,1.58
2023-09-29T22:57:19.420Z,2.28
2023-09-29T22:59:49.871Z,1.90
2023-09-29T23:02:23.185Z,1.80
2023-09-29T23:04:53.363Z,2.05
2023-09-29T23:07:23.886Z,1.95
2023-09-29T23:09:54.721Z,2.10
2023-09-29T23:12:25.433Z,1.90
2023-09-29T23:14:55.750Z,1.80
2023-09-29T23:17:25.669Z,2.05
2023-09-29T23:19:57.345Z,2.00
2023-09-29T23:22:28.430Z,1.70
2023-09-29T23:24:58.870Z,2.63
2023-09-29T23:27:29.343Z,2.08
2023-09-29T23:29:59.792Z,1.85
2023-09-29T23:32:32.937Z,1.98
2023-09-29T23:35:04.475Z,2.17
2023-09-29T23:37:34.307Z,1.85
2023-09-29T23:40:07.816Z,2.20
2023-09-29T23:42:39.196Z,2.38
2023-09-29T23:45:13.996Z,2.10
2023-09-29T23:47:45.401Z,2.88
2023-09-29T23:50:16.093Z,2.20
2023-09-29T23:52:47.047Z,2.10
2023-09-29T23:55:18.754Z,2.22
2023-09-29T23:57:48.881Z,1.98
